createdAt,value
2018-05-08T00:01:09.195Z,7.43
2018-05-08T00:03:35.389Z,4.47
2018-05-08T00:06:01.582Z,4.10
2018-05-08T00:08:27.770Z,5.53
2018-05-08T00:10:53.934Z,6.27
2018-05-08T00:13:20.132Z,5.33
2018-05-08T00:15:46.290Z,6.13
2018-05-08T00:18:12.538Z,5.60
2018-05-08T00:20:38.696Z,5.00
2018-05-08T00:23:04.885Z,4.83
2018-05-08T00:25:31.112Z,6.07
2018-05-08T00:27:57.303Z,5.47
2018-05-08T00:30:24.218Z,4.97
2018-05-08T00:32:50.417Z,8.80
2018-05-08T00:35:16.569Z,5.07
2018-05-08T00:37:42.741Z,4.80
2018-05-08T00:40:08.925Z,6.63
2018-05-08T00:42:35.186Z,5.27
2018-05-08T00:45:01.402Z,5.83
2018-05-08T00:47:27.585Z,7.40
2018-05-08T00:49:53.763Z,4.60
2018-05-08T00:52:20.743Z,4.43
2018-05-08T00:54:59.105Z,4.87
2018-05-08T00:57:25.331Z,4.87
2018-05-08T00:59:51.516Z,5.07
2018-05-08T01:02:17.686Z,5.63
2018-05-08T01:04:43.903Z,4.97
2018-05-08T01:07:10.097Z,5.10
2018-05-08T01:09:36.286Z,5.53
2018-05-08T01:12:02.483Z,5.73
2018-05-08T01:14:28.681Z,6.37
2018-05-08T01:16:54.854Z,8.23
2018-05-08T01:19:21.073Z,8.63
2018-05-08T01:21:47.245Z,8.47
2018-05-08T01:24:13.443Z,9.43
2018-05-08T01:26:40.379Z,8.10
2018-05-08T01:29:06.574Z,10.43
2018-05-08T01:31:32.796Z,7.20
2018-05-08T01:33:58.974Z,7.20
2018-05-08T01:36:25.914Z,7.80
2018-05-08T01:38:52.901Z,7.57
2018-05-08T01:41:19.109Z,7.23
2018-05-08T01:43:45.309Z,6.80
2018-05-08T01:46:11.478Z,6.13
2018-05-08T01:48:37.688Z,6.20
2018-05-08T01:51:03.911Z,5.23
2018-05-08T01:53:30.119Z,6.53
2018-05-08T01:55:56.293Z,5.70
2018-05-08T01:58:22.618Z,5.10
2018-05-08T02:00:48.774Z,6.47
2018-05-08T02:03:14.958Z,5.63
2018-05-08T02:05:41.123Z,9.20
2018-05-08T02:08:07.287Z,4.80
2018-05-08T02:10:33.544Z,5.23
2018-05-08T02:12:59.744Z,8.30
2018-05-08T02:15:25.933Z,4.93
2018-05-08T02:17:52.095Z,5.20
2018-05-08T02:20:18.349Z,5.13
2018-05-08T02:22:44.470Z,5.70
2018-05-08T02:25:10.670Z,6.13
2018-05-08T02:27:37.635Z,6.10
2018-05-08T02:30:03.894Z,5.70
2018-05-08T02:32:30.074Z,5.80
2018-05-08T02:34:56.269Z,6.17
2018-05-08T02:37:22.429Z,6.10
2018-05-08T02:39:49.355Z,6.70
2018-05-08T02:42:16.299Z,8.10
2018-05-08T02:44:42.485Z,5.97
2018-05-08T02:47:08.663Z,6.40
2018-05-08T02:49:35.587Z,6.20
2018-05-08T02:52:01.773Z,5.70
2018-05-08T02:54:27.955Z,5.57
2018-05-08T02:56:54.126Z,5.50
2018-05-08T02:59:20.301Z,5.90
2018-05-08T03:01:46.490Z,6.83
2018-05-08T03:04:12.672Z,7.70
2018-05-08T03:06:38.846Z,9.13
2018-05-08T03:09:05.086Z,6.63
2018-05-08T03:11:31.246Z,6.30
2018-05-08T03:13:58.175Z,6.20
2018-05-08T03:16:24.430Z,5.30
2018-05-08T03:18:50.631Z,7.13
2018-05-08T03:21:16.820Z,8.53
2018-05-08T03:23:43.007Z,6.37
2018-05-08T03:26:09.185Z,6.57
2018-05-08T03:28:35.362Z,7.43
2018-05-08T03:31:02.797Z,6.33
2018-05-08T03:33:28.976Z,6.57
2018-05-08T03:35:55.145Z,7.23
2018-05-08T03:38:21.331Z,6.30
2018-05-08T03:40:47.552Z,8.20
2018-05-08T03:43:13.727Z,6.57
2018-05-08T03:45:39.914Z,7.50
2018-05-08T03:48:06.087Z,6.70
2018-05-08T03:50:32.314Z,9.00
2018-05-08T03:52:58.501Z,6.67
2018-05-08T03:55:24.693Z,9.87
2018-05-08T03:57:50.859Z,9.17
2018-05-08T04:00:29.367Z,7.87
2018-05-08T04:03:07.678Z,7.17
2018-05-08T04:05:46.075Z,8.60
2018-05-08T04:08:22.331Z,7.93
2018-05-08T04:10:48.479Z,6.83
2018-05-08T04:13:14.642Z,6.53
2018-05-08T04:15:40.830Z,7.00
2018-05-08T04:18:07.126Z,7.70
2018-05-08T04:20:33.321Z,7.73
2018-05-08T04:22:59.506Z,8.30
2018-05-08T04:25:25.726Z,8.03
2018-05-08T04:27:51.906Z,8.50
2018-05-08T04:30:18.110Z,9.30
2018-05-08T04:32:44.337Z,12.17
2018-05-08T04:35:10.533Z,7.13
2018-05-08T04:37:36.717Z,13.67
2018-05-08T04:40:02.985Z,9.90
2018-05-08T04:42:29.158Z,6.70
2018-05-08T04:44:55.350Z,8.40
2018-05-08T04:47:21.581Z,10.47
2018-05-08T04:49:47.747Z,8.07
2018-05-08T04:52:13.927Z,8.73
2018-05-08T04:54:40.084Z,7.73
2018-05-08T04:57:06.335Z,7.40
2018-05-08T04:59:32.547Z,7.57
2018-05-08T05:01:58.769Z,8.40
2018-05-08T05:04:24.943Z,8.40
2018-05-08T05:06:51.162Z,7.00
2018-05-08T05:09:17.306Z,7.23
2018-05-08T05:11:43.530Z,7.07
2018-05-08T05:14:09.717Z,7.67
2018-05-08T05:16:35.957Z,6.63
2018-05-08T05:19:02.951Z,9.20
2018-05-08T05:21:29.171Z,6.40
2018-05-08T05:23:55.354Z,7.57
2018-05-08T05:26:21.559Z,7.00
2018-05-08T05:28:47.721Z,10.13
2018-05-08T05:31:13.927Z,7.17
2018-05-08T05:33:40.193Z,7.30
2018-05-08T05:36:06.387Z,8.97
2018-05-08T05:38:32.614Z,8.37
2018-05-08T05:40:58.870Z,7.53
2018-05-08T05:43:25.051Z,8.90
2018-05-08T05:45:51.250Z,7.67
2018-05-08T05:48:17.421Z,10.73
2018-05-08T05:50:43.605Z,11.40
2018-05-08T05:53:09.769Z,9.17
2018-05-08T05:55:35.950Z,9.20
2018-05-08T05:58:02.173Z,11.40
2018-05-08T06:00:28.365Z,7.60
2018-05-08T06:02:54.554Z,12.33
2018-05-08T06:05:20.794Z,9.50
2018-05-08T06:07:46.989Z,12.80
2018-05-08T06:10:13.184Z,13.93
2018-05-08T06:12:39.370Z,11.43
2018-05-08T06:15:05.944Z,10.97
2018-05-08T06:17:32.138Z,12.80
2018-05-08T06:19:58.300Z,11.63
2018-05-08T06:22:25.222Z,11.77
2018-05-08T06:24:51.427Z,8.23
2018-05-08T06:27:17.618Z,7.40
2018-05-08T06:29:43.799Z,7.10
2018-05-08T06:32:09.958Z,6.70
2018-05-08T06:34:36.149Z,7.73
2018-05-08T06:37:03.468Z,8.03
2018-05-08T06:39:29.704Z,6.60
2018-05-08T06:41:55.913Z,7.03
2018-05-08T06:44:22.232Z,9.20
2018-05-08T06:46:48.318Z,7.57
2018-05-08T06:49:14.502Z,8.43
2018-05-08T06:51:40.671Z,8.70
2018-05-08T06:54:06.865Z,7.27
2018-05-08T06:56:33.047Z,7.43
2018-05-08T06:58:59.238Z,10.67
2018-05-08T07:01:25.426Z,9.60
2018-05-08T07:03:51.602Z,8.10
2018-05-08T07:06:17.781Z,8.90
2018-05-08T07:08:43.952Z,11.80
2018-05-08T07:11:10.140Z,13.87
2018-05-08T07:13:36.323Z,9.17
2018-05-08T07:16:02.720Z,11.53
2018-05-08T07:18:28.815Z,11.90
2018-05-08T07:20:55.022Z,6.80
2018-05-08T07:23:21.202Z,10.80
2018-05-08T07:25:47.405Z,23.57
2018-05-08T07:28:13.594Z,7.70
2018-05-08T07:30:40.534Z,6.80
2018-05-08T07:33:06.765Z,8.50
2018-05-08T07:35:32.950Z,7.33
2018-05-08T07:37:59.115Z,12.43
2018-05-08T07:40:26.052Z,7.90
2018-05-08T07:42:52.213Z,7.63
2018-05-08T07:45:18.421Z,6.17
2018-05-08T07:47:45.327Z,6.43
2018-05-08T07:50:11.655Z,7.27
2018-05-08T07:52:37.822Z,7.10
2018-05-08T07:55:04.015Z,4.90
2018-05-08T07:57:30.196Z,13.10
2018-05-08T07:59:56.386Z,8.70
2018-05-08T08:02:23.292Z,7.80
2018-05-08T08:04:49.494Z,8.40
2018-05-08T08:07:15.682Z,7.77
2018-05-08T08:09:45.141Z,7.50
2018-05-08T08:12:12.189Z,7.10
2018-05-08T08:14:38.361Z,12.10
2018-05-08T08:17:06.705Z,12.63
2018-05-08T08:19:32.882Z,6.37
2018-05-08T08:21:59.081Z,5.77
2018-05-08T08:24:25.286Z,5.27
2018-05-08T08:26:51.482Z,6.23
2018-05-08T08:29:17.655Z,5.20
2018-05-08T08:31:43.859Z,6.60
2018-05-08T08:34:10.073Z,7.97
2018-05-08T08:36:36.365Z,6.03
2018-05-08T08:39:03.397Z,6.10
2018-05-08T08:41:30.341Z,5.90
2018-05-08T08:43:56.599Z,5.20
2018-05-08T08:46:22.839Z,4.57
2018-05-08T08:48:49.003Z,6.50
2018-05-08T08:51:15.183Z,4.53
2018-05-08T08:53:41.354Z,4.63
2018-05-08T08:56:10.369Z,4.53
2018-05-08T08:58:37.302Z,8.60
2018-05-08T09:01:03.529Z,4.70
2018-05-08T09:03:29.724Z,4.33
2018-05-08T09:05:55.926Z,6.83
2018-05-08T09:08:22.318Z,5.63
2018-05-08T09:10:48.534Z,4.37
2018-05-08T09:13:14.729Z,5.53
2018-05-08T09:15:40.927Z,7.70
2018-05-08T09:18:08.765Z,4.80
2018-05-08T09:20:34.942Z,5.50
2018-05-08T09:23:01.135Z,5.27
2018-05-08T09:42:44.092Z,4.10
2018-05-08T09:45:11.177Z,3.50
2018-05-08T09:47:37.382Z,3.70
2018-05-08T09:50:03.670Z,4.10
2018-05-08T09:52:30.594Z,3.53
2018-05-08T09:54:56.782Z,5.40
2018-05-08T09:57:23.031Z,4.53
2018-05-08T09:59:49.227Z,6.60
2018-05-08T10:02:15.434Z,4.33
2018-05-08T10:04:41.602Z,7.27
2018-05-08T10:07:07.796Z,4.13
2018-05-08T10:09:33.966Z,7.47
2018-05-08T10:12:00.141Z,4.37
2018-05-08T10:14:26.305Z,7.43
2018-05-08T10:16:52.572Z,3.90
2018-05-08T10:19:18.742Z,10.50
2018-05-08T10:21:44.943Z,3.73
2018-05-08T10:24:11.857Z,3.27
2018-05-08T10:26:38.125Z,3.40
2018-05-08T10:29:04.236Z,3.23
2018-05-08T10:31:31.150Z,3.50
2018-05-08T10:33:57.320Z,4.13
2018-05-08T10:36:23.544Z,6.63
2018-05-08T10:38:49.710Z,6.57
2018-05-08T10:41:15.910Z,3.63
2018-05-08T10:43:42.093Z,3.27
2018-05-08T10:46:08.309Z,4.73
2018-05-08T10:48:34.492Z,3.30
2018-05-08T10:51:00.654Z,2.77
2018-05-08T10:53:26.866Z,2.80
2018-05-08T10:55:53.032Z,4.30
2018-05-08T10:58:19.282Z,3.57
2018-05-08T11:00:45.506Z,5.63
2018-05-08T11:03:12.439Z,4.27
2018-05-08T11:05:38.605Z,3.23
2018-05-08T11:08:04.840Z,3.60
2018-05-08T11:10:31.015Z,2.77
2018-05-08T11:12:57.951Z,2.93
2018-05-08T11:15:24.137Z,6.23
2018-05-08T11:17:50.355Z,3.30
2018-05-08T11:20:16.528Z,5.43
2018-05-08T11:22:42.757Z,3.47
2018-05-08T11:25:08.961Z,6.10
2018-05-08T11:27:35.153Z,2.77
2018-05-08T11:30:01.371Z,5.33
2018-05-08T11:32:27.567Z,3.00
2018-05-08T11:34:53.750Z,3.20
2018-05-08T11:37:19.947Z,3.23
2018-05-08T11:39:46.122Z,2.90
2018-05-08T11:42:12.321Z,3.17
2018-05-08T11:44:38.554Z,3.00
2018-05-08T11:47:05.532Z,3.47
2018-05-08T11:49:31.736Z,3.07
2018-05-08T11:51:57.932Z,3.73
2018-05-08T11:54:24.146Z,3.30
2018-05-08T11:56:51.047Z,3.83
2018-05-08T11:59:17.232Z,3.20
2018-05-08T12:01:43.429Z,3.80
2018-05-08T12:04:09.651Z,2.80
2018-05-08T12:06:35.860Z,3.70
2018-05-08T12:09:02.240Z,4.23
2018-05-08T12:11:28.415Z,3.50
2018-05-08T12:13:54.634Z,2.77
2018-05-08T12:16:20.815Z,2.80
2018-05-08T12:18:47.749Z,3.13
2018-05-08T12:21:13.908Z,2.80
2018-05-08T12:23:40.110Z,4.77
2018-05-08T12:26:07.038Z,6.43
2018-05-08T12:28:33.226Z,2.93
2018-05-08T12:31:06.222Z,2.30
2018-05-08T12:33:32.455Z,3.57
2018-05-08T12:35:58.635Z,3.50
2018-05-08T12:38:24.840Z,3.00
2018-05-08T12:40:51.042Z,3.80
2018-05-08T12:43:17.242Z,2.50
2018-05-08T12:45:43.394Z,2.00
2018-05-08T12:48:09.587Z,2.47
2018-05-08T12:50:35.761Z,2.50
2018-05-08T12:53:01.958Z,3.13
2018-05-08T12:55:28.126Z,2.60
2018-05-08T12:57:55.079Z,2.73
2018-05-08T13:00:21.258Z,4.60
2018-05-08T13:02:47.461Z,4.00
2018-05-08T13:05:13.719Z,3.40
2018-05-08T13:07:39.909Z,2.97
2018-05-08T13:10:06.095Z,2.60
2018-05-08T13:12:33.021Z,3.57
2018-05-08T13:14:59.214Z,3.20
2018-05-08T13:17:25.418Z,3.57
2018-05-08T13:19:51.647Z,3.33
2018-05-08T13:22:17.825Z,4.13
2018-05-08T13:24:44.043Z,2.70
2018-05-08T13:27:10.246Z,4.90
2018-05-08T13:29:36.443Z,2.90
2018-05-08T13:32:03.466Z,2.90
2018-05-08T13:34:29.677Z,2.63
2018-05-08T13:36:56.498Z,2.37
2018-05-08T13:39:22.729Z,2.10
2018-05-08T13:41:48.943Z,3.90
2018-05-08T13:44:15.187Z,3.80
2018-05-08T13:46:41.406Z,3.03
2018-05-08T13:49:07.630Z,2.17
2018-05-08T13:51:33.826Z,2.60
2018-05-08T13:54:00.782Z,3.50
2018-05-08T13:56:26.997Z,3.37
2018-05-08T13:58:53.198Z,2.80
2018-05-08T14:01:19.378Z,2.33
2018-05-08T14:03:45.576Z,2.67
2018-05-08T14:06:12.019Z,1.93
2018-05-08T14:08:38.266Z,7.43
2018-05-08T14:11:04.468Z,3.13
2018-05-08T14:13:31.419Z,2.97
2018-05-08T14:15:57.656Z,2.70
2018-05-08T14:18:23.874Z,2.80
2018-05-08T14:20:50.069Z,3.23
2018-05-08T14:23:16.330Z,2.83
2018-05-08T14:25:42.527Z,4.03
2018-05-08T14:28:08.706Z,2.03
2018-05-08T14:30:34.910Z,2.60
2018-05-08T14:33:01.859Z,3.93
2018-05-08T14:35:28.085Z,2.20
2018-05-08T14:37:54.328Z,2.77
2018-05-08T14:40:20.569Z,3.60
2018-05-08T14:42:46.800Z,3.00
2018-05-08T14:45:13.121Z,3.33
2018-05-08T14:47:39.309Z,3.07
2018-05-08T14:50:05.497Z,3.20
2018-05-08T14:52:31.710Z,3.07
2018-05-08T14:54:57.918Z,2.33
2018-05-08T14:57:24.101Z,3.37
2018-05-08T14:59:50.310Z,6.30
2018-05-08T15:02:16.519Z,3.50
2018-05-08T15:04:42.716Z,3.03
2018-05-08T15:07:08.885Z,3.93
2018-05-08T15:09:35.090Z,2.60
2018-05-08T15:12:01.322Z,5.23
2018-05-08T15:14:27.545Z,6.83
2018-05-08T15:16:53.771Z,2.97
2018-05-08T15:19:20.001Z,3.20
2018-05-08T15:21:46.265Z,3.13
2018-05-08T15:24:12.470Z,4.93
2018-05-08T15:26:38.650Z,3.23
2018-05-08T15:29:04.855Z,2.70
2018-05-08T15:31:31.049Z,3.97
2018-05-08T15:33:57.271Z,2.60
2018-05-08T15:36:23.470Z,3.83
2018-05-08T15:38:49.672Z,2.70
2018-05-08T15:41:15.907Z,3.60
2018-05-08T15:43:42.081Z,3.07
2018-05-08T15:46:08.266Z,3.83
2018-05-08T15:48:35.190Z,5.37
2018-05-08T15:51:01.382Z,2.47
2018-05-08T15:53:27.596Z,2.57
2018-05-08T15:55:53.802Z,3.23
2018-05-08T15:58:19.973Z,3.80
2018-05-08T16:00:46.195Z,2.17
2018-05-08T16:03:12.370Z,3.87
2018-05-08T16:05:38.577Z,2.77
2018-05-08T16:08:04.785Z,4.60
2018-05-08T16:10:31.504Z,4.30
2018-05-08T16:12:57.733Z,8.43
2018-05-08T16:15:23.921Z,7.60
2018-05-08T16:17:50.843Z,2.87
2018-05-08T16:20:17.113Z,3.80
2018-05-08T16:22:43.316Z,5.37
2018-05-08T16:25:09.518Z,3.10
2018-05-08T16:27:35.806Z,5.83
2018-05-08T16:30:02.065Z,4.23
2018-05-08T16:32:28.292Z,4.73
2018-05-08T16:34:54.567Z,3.20
2018-05-08T16:37:20.823Z,3.70
2018-05-08T16:39:47.053Z,3.60
2018-05-08T16:42:13.231Z,2.83
2018-05-08T16:44:40.064Z,3.70
2018-05-08T16:47:06.418Z,3.47
2018-05-08T16:49:33.340Z,3.20
2018-05-08T16:52:00.351Z,3.37
2018-05-08T16:54:26.546Z,5.03
2018-05-08T16:56:52.749Z,3.43
2018-05-08T16:59:18.935Z,3.20
2018-05-08T17:01:45.871Z,2.70
2018-05-08T17:04:12.145Z,4.67
2018-05-08T17:06:39.210Z,4.30
2018-05-08T17:09:05.444Z,3.63
2018-05-08T17:11:31.774Z,4.13
2018-05-08T17:13:59.030Z,7.13
2018-05-08T17:16:25.327Z,4.40
2018-05-08T17:18:51.539Z,6.27
2018-05-08T17:21:17.758Z,3.47
2018-05-08T17:23:44.015Z,6.60
2018-05-08T17:26:10.458Z,5.13
2018-05-08T17:28:36.633Z,7.10
2018-05-08T17:31:03.349Z,4.73
2018-05-08T17:33:29.686Z,3.10
2018-05-08T17:35:55.934Z,7.60
2018-05-08T17:38:22.195Z,6.53
2018-05-08T17:40:48.405Z,4.03
2018-05-08T17:43:14.864Z,6.13
2018-05-08T17:45:41.821Z,7.07
2018-05-08T17:48:08.223Z,6.03
2018-05-08T17:50:34.495Z,4.90
2018-05-08T17:53:00.821Z,4.00
2018-05-08T17:55:27.135Z,3.80
2018-05-08T17:57:53.613Z,3.07
2018-05-08T18:00:19.834Z,3.87
2018-05-08T18:02:46.048Z,7.40
2018-05-08T18:05:12.232Z,5.83
2018-05-08T18:07:38.566Z,5.90
2018-05-08T18:10:05.421Z,4.10
2018-05-08T18:12:31.639Z,3.53
2018-05-08T18:14:57.904Z,4.07
2018-05-08T18:17:24.293Z,7.00
2018-05-08T18:19:51.675Z,10.80
2018-05-08T18:22:17.878Z,4.70
2018-05-08T18:24:44.060Z,4.50
2018-05-08T18:27:10.261Z,7.40
2018-05-08T18:29:36.438Z,6.53
2018-05-08T18:32:02.708Z,6.23
2018-05-08T18:34:28.960Z,4.07
2018-05-08T18:36:55.216Z,5.47
2018-05-08T18:39:21.747Z,7.30
2018-05-08T18:41:47.977Z,4.20
2018-05-08T18:44:15.339Z,4.23
2018-05-08T18:46:41.548Z,3.73
2018-05-08T18:49:07.738Z,5.07
2018-05-08T18:51:34.033Z,4.47
2018-05-08T18:54:00.358Z,6.40
2018-05-08T18:56:26.574Z,5.30
2018-05-08T18:58:52.744Z,6.33
2018-05-08T19:01:18.959Z,5.23
2018-05-08T19:03:45.203Z,4.50
2018-05-08T19:06:11.462Z,6.70
2018-05-08T19:08:37.654Z,6.57
2018-05-08T19:11:10.033Z,4.00
2018-05-08T19:13:36.217Z,6.03
2018-05-08T19:16:03.340Z,4.87
2018-05-08T19:18:35.851Z,5.10
2018-05-08T19:21:02.040Z,5.53
2018-05-08T19:23:29.884Z,6.13
2018-05-08T19:25:56.131Z,5.13
2018-05-08T19:28:28.676Z,4.60
2018-05-08T19:30:54.875Z,4.87
2018-05-08T19:33:21.146Z,4.57
2018-05-08T19:35:53.286Z,5.27
2018-05-08T19:38:22.090Z,6.00
2018-05-08T19:40:49.323Z,4.93
2018-05-08T19:43:15.582Z,3.83
2018-05-08T19:45:42.694Z,4.37
2018-05-08T19:48:10.113Z,4.53
2018-05-08T19:50:36.323Z,7.10
2018-05-08T19:53:02.565Z,9.57
2018-05-08T19:55:29.068Z,8.43
2018-05-08T19:57:55.393Z,5.33
2018-05-08T20:00:21.647Z,3.80
2018-05-08T20:02:48.247Z,4.60
2018-05-08T20:05:14.470Z,7.07
2018-05-08T20:07:41.547Z,4.20
2018-05-08T20:10:08.093Z,6.43
2018-05-08T20:12:34.325Z,6.37
2018-05-08T20:15:00.570Z,5.07
2018-05-08T20:17:26.805Z,4.67
2018-05-08T20:19:52.997Z,4.30
2018-05-08T20:22:19.637Z,4.57
2018-05-08T20:24:45.855Z,5.50
2018-05-08T20:27:12.874Z,7.70
2018-05-08T20:29:39.062Z,5.03
2018-05-08T20:32:05.287Z,5.73
2018-05-08T20:34:31.478Z,5.30
2018-05-08T20:36:57.699Z,7.67
2018-05-08T20:39:23.881Z,6.20
2018-05-08T20:41:50.084Z,5.70
2018-05-08T20:44:16.590Z,6.13
2018-05-08T20:46:42.815Z,4.80
2018-05-08T20:49:09.110Z,5.93
2018-05-08T20:51:42.102Z,4.90
2018-05-08T20:54:08.321Z,3.97
2018-05-08T20:56:34.484Z,4.07
2018-05-08T20:59:00.803Z,8.43
2018-05-08T21:01:27.004Z,4.97
2018-05-08T21:03:53.208Z,4.53
2018-05-08T21:06:19.605Z,5.07
2018-05-08T21:08:45.806Z,5.00
2018-05-08T21:11:13.014Z,4.27
2018-05-08T21:13:39.256Z,5.47
2018-05-08T21:16:05.455Z,6.63
2018-05-08T21:18:31.642Z,5.13
2018-05-08T21:20:57.837Z,6.80
2018-05-08T21:23:24.092Z,5.20
2018-05-08T21:25:50.323Z,5.10
2018-05-08T21:28:22.670Z,4.30
2018-05-08T21:30:54.987Z,4.30
2018-05-08T21:33:21.917Z,4.97
2018-05-08T21:35:48.252Z,6.23
2018-05-08T21:38:16.116Z,5.07
2018-05-08T21:40:43.143Z,5.03
2018-05-08T21:43:09.411Z,4.63
2018-05-08T21:45:35.583Z,5.03
2018-05-08T21:48:01.851Z,5.07
2018-05-08T21:50:28.785Z,10.00
2018-05-08T21:52:54.981Z,4.50
2018-05-08T21:55:21.194Z,5.90
2018-05-08T21:57:47.369Z,5.40
2018-05-08T22:00:14.316Z,5.93
2018-05-08T22:02:41.253Z,5.00
2018-05-08T22:05:07.430Z,4.23
2018-05-08T22:07:33.642Z,5.53
2018-05-08T22:09:59.840Z,4.50
2018-05-08T22:12:26.087Z,4.20
2018-05-08T22:14:52.279Z,5.43
2018-05-08T22:17:18.450Z,4.43
2018-05-08T22:19:44.630Z,4.77
2018-05-08T22:22:10.802Z,6.70
2018-05-08T22:24:37.050Z,4.17
2018-05-08T22:27:03.241Z,5.10
2018-05-08T22:29:29.429Z,5.57
2018-05-08T22:31:55.611Z,4.97
2018-05-08T22:34:21.807Z,4.90
2018-05-08T22:36:47.972Z,4.93
2018-05-08T22:39:14.205Z,6.03
2018-05-08T22:41:40.387Z,5.77
2018-05-08T22:44:07.314Z,5.27
2018-05-08T22:46:33.488Z,7.93
2018-05-08T22:48:59.713Z,5.90
2018-05-08T22:51:25.899Z,6.67
2018-05-08T22:53:52.095Z,5.97
2018-05-08T22:56:18.267Z,5.77
2018-05-08T22:58:44.453Z,6.40
2018-05-08T23:01:10.617Z,5.53
2018-05-08T23:03:36.813Z,6.00
2018-05-08T23:06:03.003Z,6.07
2018-05-08T23:08:29.266Z,4.70
2018-05-08T23:10:55.438Z,6.30
2018-05-08T23:13:22.336Z,5.50
2018-05-08T23:15:48.535Z,5.37
2018-05-08T23:18:14.721Z,4.77
2018-05-08T23:20:41.649Z,4.87
2018-05-08T23:23:07.831Z,5.63
2018-05-08T23:25:34.025Z,7.10
2018-05-08T23:28:01.070Z,5.70
2018-05-08T23:30:27.250Z,5.40
2018-05-08T23:32:53.448Z,7.57
2018-05-08T23:35:19.649Z,6.60
2018-05-08T23:37:46.591Z,8.23
2018-05-08T23:40:12.785Z,8.63
2018-05-08T23:42:38.946Z,8.37
2018-05-08T23:45:05.146Z,11.03
2018-05-08T23:47:31.381Z,6.40
2018-05-08T23:49:57.573Z,7.00
2018-05-08T23:52:23.728Z,6.50
2018-05-08T23:54:49.930Z,9.00
2018-05-08T23:57:16.086Z,6.73
2018-05-08T23:59:42.280Z,6.33
